Time;durP1;ratioP1;P1;durP2;ratioP2;P2;SDS_P1;SDS_P2;PMS_P1;PMS_P2;Temp;Humidity;BMP_temperature;BMP_pressure;BME280_temperature;BME280_humidity;BME280_pressure;Samples;Min_cycle;Max_cycle;Signal;HPM_P1;HPM_P2
2024/04/05 04:39:19;;;;;;;4.20;2.70;;;;;;;2.75;100.00;100428.23;111812;1246;22502;-43
2024/04/05 04:41:47;;;;;;;6.60;2.50;;;;;;;2.84;100.00;100435.25;112802;1234;22453;-49
2024/04/05 04:44:14;;;;;;;5.10;2.70;;;;;;;2.94;100.00;100440.23;113212;1240;22884;-48
2024/04/05 04:46:40;;;;;;;4.40;2.60;;;;;;;3.03;100.00;100444.65;113291;1237;22531;-50
2024/04/05 04:49:08;;;;;;;10.00;2.80;;;;;;;3.14;100.00;100446.42;113272;1243;22355;-51
2024/04/05 04:51:35;;;;;;;8.40;2.60;;;;;;;3.29;99.99;100444.63;112641;1237;22539;-40
2024/04/05 04:54:02;;;;;;;6.90;2.50;;;;;;;3.41;99.63;100451.75;110898;1240;23309;-42
2024/04/05 04:56:30;;;;;;;4.50;2.60;;;;;;;3.54;99.23;100453.01;111549;1237;189724;-42
2024/04/05 04:58:58;;;;;;;7.80;2.70;;;;;;;3.64;98.83;100452.11;113111;1237;22381;-42
2024/04/05 05:01:24;;;;;;;8.40;3.10;;;;;;;3.77;98.54;100453.67;113142;1237;23136;-50
2024/04/05 05:03:52;;;;;;;6.20;2.40;;;;;;;3.90;98.12;100457.36;113034;1245;22788;-43
2024/04/05 05:06:19;;;;;;;3.40;2.70;;;;;;;4.01;98.04;100460.45;113247;1237;22398;-41
2024/04/05 05:08:45;;;;;;;4.50;2.40;;;;;;;4.13;97.26;100457.52;112686;1240;22431;-50
2024/04/05 05:11:12;;;;;;;3.20;2.20;;;;;;;4.26;97.14;100458.40;113200;1246;22352;-49
2024/04/05 05:13:39;;;;;;;4.00;2.60;;;;;;;4.40;96.79;100457.05;112921;1246;22426;-49
2024/04/05 05:16:16;;;;;;;8.70;2.60;;;;;;;4.52;96.64;100453.79;113203;1241;22856;-49
2024/04/05 05:18:55;;;;;;;5.90;2.80;;;;;;;4.67;96.59;100455.55;113206;1246;23213;-49
2024/04/05 05:21:23;;;;;;;3.10;2.40;;;;;;;4.79;96.37;100459.48;113055;1240;23165;-49
2024/04/05 05:23:49;;;;;;;4.10;2.20;;;;;;;4.92;96.68;100461.55;113121;1234;23117;-50
2024/04/05 05:26:18;;;;;;;4.30;2.10;;;;;;;5.10;96.72;100462.52;112846;1244;22442;-42
2024/04/05 05:28:44;;;;;;;4.20;2.70;;;;;;;5.30;96.19;100463.86;112874;1232;22864;-50
2024/04/05 05:31:12;;;;;;;3.20;2.00;;;;;;;5.50;95.50;100461.58;112865;1243;22750;-50
2024/04/05 05:33:57;;;;;;;4.80;2.30;;;;;;;5.73;94.11;100466.06;112839;1246;22406;-51
2024/04/05 05:36:26;;;;;;;4.00;2.40;;;;;;;5.91;93.06;100465.98;112635;1246;23468;-41
2024/04/05 05:38:56;;;;;;;2.40;2.00;;;;;;;6.11;92.00;100466.76;111380;1246;22576;-51
2024/04/05 05:41:23;;;;;;;2.60;1.70;;;;;;;6.29;90.94;100463.66;112767;1246;22867;-50
2024/04/05 05:43:49;;;;;;;4.30;2.00;;;;;;;6.46;90.43;100465.89;113067;1246;22410;-43
2024/04/05 05:46:29;;;;;;;2.20;1.60;;;;;;;6.63;89.12;100465.17;112224;1246;25387;-53
2024/04/05 05:49:04;;;;;;;2.60;1.70;;;;;;;6.80;87.15;100463.58;112363;1246;22272;-50
2024/04/05 05:51:32;;;;;;;2.70;1.90;;;;;;;6.96;86.16;100466.98;112580;1246;23004;-42
2024/04/05 05:54:01;;;;;;;1.80;1.30;;;;;;;7.11;85.17;100470.17;112543;1246;22378;-50
2024/04/05 05:56:29;;;;;;;1.90;1.40;;;;;;;7.23;83.93;100473.69;112695;1246;22384;-43
2024/04/05 05:58:56;;;;;;;3.20;2.00;;;;;;;7.35;82.69;100474.57;112435;1246;23191;-42
2024/04/05 06:01:24;;;;;;;3.20;2.00;;;;;;;7.47;81.47;100472.15;113065;1246;22375;-42
2024/04/05 06:03:53;;;;;;;2.10;1.70;;;;;;;7.58;79.84;100472.33;111525;1246;23293;-43
2024/04/05 06:06:21;;;;;;;1.70;1.40;;;;;;;7.69;78.69;100473.70;112732;1246;22420;-42
2024/04/05 06:08:48;;;;;;;1.30;1.20;;;;;;;7.82;77.37;100478.05;112867;1246;22885;-41
2024/04/05 06:11:15;;;;;;;1.30;1.20;;;;;;;7.93;76.46;100475.23;112611;1246;22273;-44
2024/04/05 06:13:43;;;;;;;2.70;1.30;;;;;;;8.04;75.03;100474.17;112704;1246;23684;-50
2024/04/05 06:16:12;;;;;;;1.50;1.30;;;;;;;8.14;73.77;100472.39;113037;1246;22403;-51
2024/04/05 06:18:45;;;;;;;;;;;;;;;8.20;72.92;100475.77;112448;1246;22459;-41
2024/04/05 06:21:12;;;;;;;3.00;1.50;;;;;;;8.28;72.39;100478.13;112010;1246;22540;-42
2024/04/05 06:23:40;;;;;;;2.10;1.30;;;;;;;8.39;71.68;100475.84;112835;1246;22481;-43
2024/04/05 06:26:08;;;;;;;1.30;1.00;;;;;;;8.48;71.15;100476.13;112818;1246;22841;-40
2024/04/05 06:28:36;;;;;;;3.40;1.10;;;;;;;8.59;70.43;100472.44;112453;1246;22422;-50
2024/04/05 06:31:12;;;;;;;3.90;1.10;;;;;;;8.72;69.99;100478.13;112849;1234;22779;-51
2024/04/05 06:33:39;;;;;;;;;;;;;;;8.81;68.95;100480.66;112869;1246;22975;-51
2024/04/05 06:36:09;;;;;;;1.00;0.80;;;;;;;8.89;68.09;100482.66;113053;1246;22376;-44
2024/04/05 06:38:36;;;;;;;2.80;1.50;;;;;;;8.94;67.83;100482.70;112833;1246;22468;-51
2024/04/05 06:41:04;;;;;;;1.60;1.00;;;;;;;9.00;67.49;100487.80;112784;1246;23138;-44
2024/04/05 06:43:32;;;;;;;1.30;1.00;;;;;;;9.06;67.02;100486.98;112973;1246;22231;-43
2024/04/05 06:46:07;;;;;;;1.40;1.20;;;;;;;9.11;66.59;100482.17;112922;1246;22494;-51
2024/04/05 06:48:35;;;;;;;1.90;1.10;;;;;;;9.16;66.27;100483.95;112645;1238;22647;-42
2024/04/05 06:51:09;;;;;;;1.20;1.00;;;;;;;9.23;66.05;100483.66;113142;1246;22378;-42
2024/04/05 06:53:36;;;;;;;1.20;0.90;;;;;;;9.38;66.23;100482.91;113153;1246;22382;-41
2024/04/05 06:56:03;;;;;;;3.60;1.20;;;;;;;9.51;65.50;100474.65;112766;1246;23129;-50
2024/04/05 06:58:30;;;;;;;1.60;1.30;;;;;;;9.60;65.14;100473.85;113133;1246;22526;-51
2024/04/05 07:00:57;;;;;;;1.10;1.00;;;;;;;9.70;64.75;100472.16;113224;1246;22391;-49
2024/04/05 07:03:24;;;;;;;2.50;1.10;;;;;;;9.74;64.33;100475.33;112917;1246;22399;-51
2024/04/05 07:06:02;;;;;;;1.00;0.90;;;;;;;9.79;63.98;100476.41;112840;1246;24104;-50
2024/04/05 07:08:30;;;;;;;1.40;1.10;;;;;;;9.85;62.88;100474.00;113052;1246;22507;-43
2024/04/05 07:10:58;;;;;;;1.40;1.20;;;;;;;9.91;62.54;100470.20;112561;1246;22967;-43
2024/04/05 07:13:37;;;;;;;2.00;1.00;;;;;;;10.04;62.64;100472.36;112535;1246;22433;-51
2024/04/05 07:16:04;;;;;;;1.10;1.00;;;;;;;10.19;62.40;100471.92;112914;1246;22879;-51
2024/04/05 07:18:44;;;;;;;1.40;0.90;;;;;;;10.33;62.25;100476.52;112363;1246;22894;-43
2024/04/05 07:21:13;;;;;;;1.20;0.90;;;;;;;10.42;61.45;100477.27;113200;1246;22362;-42
2024/04/05 07:23:41;;;;;;;2.00;1.00;;;;;;;10.56;60.67;100476.09;111813;1246;23203;-54
2024/04/05 07:26:15;;;;;;;1.70;1.10;;;;;;;10.73;60.66;100477.17;111552;1246;22511;-42
2024/04/05 07:28:42;;;;;;;1.40;1.00;;;;;;;10.88;60.82;100478.77;112876;1246;22404;-49
2024/04/05 07:31:16;;;;;;;3.70;1.00;;;;;;;10.99;59.77;100482.98;112822;1246;22444;-42
2024/04/05 07:33:49;;;;;;;3.00;1.20;;;;;;;11.10;58.95;100483.52;113046;1246;22604;-43
2024/04/05 07:36:23;;;;;;;1.70;1.10;;;;;;;11.19;58.23;100486.66;112248;1246;22893;-50
2024/04/05 07:39:02;;;;;;;2.70;1.10;;;;;;;11.29;57.64;100485.98;112554;1246;22703;-49
2024/04/05 07:41:34;;;;;;;2.80;1.50;;;;;;;11.35;57.95;100488.41;111599;1246;22455;-43
2024/04/05 07:44:09;;;;;;;4.00;1.00;;;;;;;11.36;57.06;100487.70;112522;1246;22134;-43
2024/04/05 07:46:37;;;;;;;1.90;1.10;;;;;;;11.35;57.12;100490.67;112536;1246;22340;-50
2024/04/05 07:49:07;;;;;;;1.00;0.80;;;;;;;11.39;56.69;100492.43;112441;1246;22487;-41
2024/04/05 07:51:38;;;;;;;1.30;0.90;;;;;;;11.43;56.87;100494.52;112026;1246;22500;-41
2024/04/05 07:54:12;;;;;;;1.50;1.00;;;;;;;11.51;57.04;100491.72;112572;1246;22509;-49
2024/04/05 07:56:41;;;;;;;2.60;1.10;;;;;;;11.61;55.79;100495.21;112241;1246;22440;-50
2024/04/05 07:59:10;;;;;;;1.20;0.90;;;;;;;11.61;55.01;100493.64;112338;1248;22563;-50
2024/04/05 08:01:39;;;;;;;3.00;1.50;;;;;;;11.64;55.44;100497.65;111512;1248;24310;-51
2024/04/05 08:04:38;;;;;;;1.80;1.00;;;;;;;11.70;55.86;100497.81;111835;1248;25389;-51
2024/04/05 08:07:12;;;;;;;2.60;1.20;;;;;;;11.75;55.02;100496.23;111053;1248;22505;-49
2024/04/05 08:09:58;;;;;;;1.00;0.90;;;;;;;11.75;54.93;100496.06;112644;1240;23200;-42
2024/04/05 08:12:25;;;;;;;1.50;0.90;;;;;;;11.81;54.88;100494.15;112237;1248;22919;-51
2024/04/05 08:15:03;;;;;;;1.70;1.10;;;;;;;11.90;55.46;100497.30;112752;1248;22382;-43
2024/04/05 08:17:43;;;;;;;1.50;1.20;;;;;;;12.04;55.01;100493.59;112295;1248;22610;-49
2024/04/05 08:20:24;;;;;;;2.20;1.30;;;;;;;12.17;55.59;100488.30;112653;1248;22421;-51
2024/04/05 08:22:51;;;;;;;2.10;1.20;;;;;;;12.33;55.45;100485.79;112758;1248;22754;-50
2024/04/05 08:25:25;;;;;;;5.00;1.20;;;;;;;12.50;54.90;100485.20;112891;1248;23203;-42
2024/04/05 08:28:22;;;;;;;3.70;2.40;;;;;;;12.67;54.50;100485.64;112960;1248;22389;-46
2024/04/05 08:30:53;;;;;;;10.70;5.70;;;;;;;12.82;53.80;100486.59;112331;1248;23113;-43
2024/04/05 08:33:23;;;;;;;1.40;1.30;;;;;;;12.92;52.75;100482.67;111927;1248;22505;-45
2024/04/05 08:35:52;;;;;;;3.60;1.10;;;;;;;12.93;51.41;100481.61;112874;1247;22404;-42
2024/04/05 08:38:21;;;;;;;1.30;1.20;;;;;;;12.84;50.92;100476.27;112197;1248;23000;-43
2024/04/05 08:40:48;;;;;;;2.20;1.00;;;;;;;12.86;51.88;100478.34;113028;1248;22365;-51
2024/04/05 08:43:16;;;;;;;3.80;1.30;;;;;;;12.97;51.82;100480.90;112985;1248;22391;-50
2024/04/05 08:45:44;;;;;;;2.20;0.90;;;;;;;13.08;50.99;100478.89;112942;1248;22942;-51
2024/04/05 08:48:11;;;;;;;1.10;0.90;;;;;;;13.12;50.02;100475.18;112205;1248;22426;-49
2024/04/05 08:50:38;;;;;;;1.50;1.00;;;;;;;13.10;49.49;100468.54;112642;1248;22408;-42
2024/04/05 08:53:17;;;;;;;3.30;1.10;;;;;;;13.10;48.59;100465.91;112901;1248;22384;-51
2024/04/05 08:55:44;;;;;;;3.60;1.20;;;;;;;13.07;47.73;100462.79;112893;1248;22685;-44
2024/04/05 08:58:17;;;;;;;1.50;0.90;;;;;;;13.07;48.22;100460.52;112593;1248;22435;-51
2024/04/05 09:00:44;;;;;;;1.00;0.80;;;;;;;13.20;48.22;100453.77;112895;1247;23026;-52
2024/04/05 09:03:11;;;;;;;3.40;1.10;;;;;;;13.33;47.39;100448.24;112556;1248;22545;-43
2024/04/05 09:05:38;;;;;;;1.90;1.20;;;;;;;13.37;46.96;100444.70;112403;1248;22495;-50
2024/04/05 09:08:08;;;;;;;1.90;0.80;;;;;;;13.47;47.38;100446.54;112587;1248;22254;-51
2024/04/05 09:10:35;;;;;;;2.30;1.30;;;;;;;13.56;45.24;100449.61;112546;1247;22819;-51
2024/04/05 09:13:04;;;;;;;2.20;1.10;;;;;;;13.51;44.11;100448.95;112754;1248;22413;-43
2024/04/05 09:15:40;;;;;;;1.90;1.20;;;;;;;13.45;44.77;100449.70;112783;1248;23121;-43
2024/04/05 09:18:09;;;;;;;4.40;1.20;;;;;;;13.45;45.29;100444.98;112201;1248;23603;-43
2024/04/05 09:20:39;;;;;;;4.00;0.90;;;;;;;13.55;46.06;100445.41;112575;1247;22417;-45
2024/04/05 09:23:10;;;;;;;;;;;;;;;13.72;45.25;100439.64;112618;1248;22423;-43
2024/04/05 09:25:38;;;;;;;3.40;1.00;;;;;;;13.87;44.79;100441.92;112205;1248;22616;-50
2024/04/05 09:28:20;;;;;;;3.50;1.20;;;;;;;13.92;43.36;100441.00;112036;1248;22336;-43
2024/04/05 09:30:48;;;;;;;3.10;0.80;;;;;;;13.91;43.12;100439.77;112689;1248;23210;-43
2024/04/05 09:33:21;;;;;;;1.60;1.00;;;;;;;13.97;43.25;100436.73;112348;1248;25898;-43
2024/04/05 09:35:48;;;;;;;1.10;0.90;;;;;;;14.02;42.65;100434.73;111343;1248;24172;-43
2024/04/05 09:38:19;;;;;;;1.00;0.90;;;;;;;14.11;42.09;100433.23;112150;1248;22496;-43
2024/04/05 09:40:47;;;;;;;2.90;0.80;;;;;;;14.23;41.95;100430.09;112978;1248;22371;-49
2024/04/05 09:43:15;;;;;;;4.50;1.00;;;;;;;14.39;42.15;100429.70;112847;1234;23183;-43
2024/04/05 09:45:44;;;;;;;2.50;0.80;;;;;;;14.54;42.27;100426.38;112941;1248;22369;-50
2024/04/05 09:48:12;;;;;;;1.80;1.00;;;;;;;14.68;41.67;100425.30;111910;1248;22541;-51
2024/04/05 09:50:40;;;;;;;0.90;0.80;;;;;;;14.80;40.05;100431.60;112780;1248;22454;-44
2024/04/05 09:53:12;;;;;;;0.70;0.70;;;;;;;14.82;39.25;100428.24;112712;1248;22511;-42
2024/04/05 09:55:39;;;;;;;1.70;1.10;;;;;;;14.78;39.21;100425.48;112594;1248;23097;-43
2024/04/05 09:58:06;;;;;;;2.20;1.10;;;;;;;14.73;39.12;100418.38;112962;1248;23080;-43
2024/04/05 10:00:36;;;;;;;1.60;0.80;;;;;;;14.83;39.57;100415.05;112852;1248;22744;-50
2024/04/05 10:03:11;;;;;;;1.10;0.80;;;;;;;14.97;39.47;100412.20;111533;1248;23613;-53
2024/04/05 10:06:49;;;;;;;1.90;1.30;;;;;;;15.09;39.29;100412.52;110712;1246;22549;-57
2024/04/05 10:10:13;;;;;;;1.80;1.30;;;;;;;15.21;37.36;100412.34;112378;1238;23415;-59
2024/04/05 10:13:32;;;;;;;4.90;1.00;;;;;;;15.20;37.16;100415.00;111250;1246;23098;31
2024/04/05 10:22:08;;;;;;;1.60;0.80;;;;;;;15.43;36.39;100411.59;110459;1251;24096;-57
2024/04/05 10:25:11;;;;;;;0.90;0.70;;;;;;;15.78;35.79;100410.27;110462;1251;25400;-50
2024/04/05 10:27:57;;;;;;;1.60;0.80;;;;;;;16.23;34.54;100415.85;111223;1251;22460;-51
2024/04/05 10:39:21;;;;;;;1.10;0.90;;;;;;;17.75;33.55;100402.83;110436;1251;22553;-50
2024/04/05 10:45:38;;;;;;;0.80;0.60;;;;;;;19.21;31.56;100394.83;111027;1242;22909;-50
2024/04/05 10:48:35;;;;;;;1.50;0.70;;;;;;;19.83;29.02;100395.14;112076;1249;22524;-55
2024/04/05 10:51:16;;;;;;;1.60;0.60;;;;;;;20.30;28.16;100399.08;111115;1249;22506;-46
2024/04/05 10:55:03;;;;;;;1.70;0.80;;;;;;;20.76;27.20;100394.81;110570;1250;22726;-45
2024/04/05 10:58:29;;;;;;;1.40;0.90;;;;;;;21.01;25.48;100396.27;111453;1250;22568;-53
2024/04/05 11:05:18;;;;;;;1.20;0.90;;;;;;;21.76;25.24;100383.09;111963;1250;22547;-46
2024/04/05 11:08:10;;;;;;;8.50;1.20;;;;;;;22.46;24.64;100382.41;111152;1250;24245;-54
2024/04/05 11:25:50;;;;;;;1.20;0.70;;;;;;;22.48;21.07;100364.17;112501;1248;23955;-46
2024/04/05 11:28:51;;;;;;;1.30;0.60;;;;;;;22.30;20.85;100366.11;112082;1245;22535;-54
2024/04/05 11:42:55;;;;;;;9.00;5.10;;;;;;;20.50;22.19;100371.42;111515;1247;22513;-48
2024/04/05 11:45:35;;;;;;;1.80;1.50;;;;;;;20.63;22.25;100366.94;111095;1250;22628;-46
2024/04/05 11:48:19;;;;;;;1.70;0.90;;;;;;;20.94;22.21;100363.05;111498;1250;22850;-51
2024/04/05 11:50:48;;;;;;;7.80;1.20;;;;;;;21.31;22.07;100363.98;111705;1251;22691;-39
2024/04/05 11:57:45;;;;;;;2.70;1.90;;;;;;;21.50;21.46;100356.41;111156;1249;22512;-44
2024/04/05 12:00:18;;;;;;;1.00;0.80;;;;;;;21.28;21.82;100353.27;111325;1249;22560;-44
2024/04/05 12:03:07;;;;;;;1.30;0.60;;;;;;;20.96;22.66;100349.27;111242;1249;22557;-43
2024/04/05 12:06:36;;;;;;;3.20;1.50;;;;;;;21.07;23.63;100347.22;111649;1249;22523;-45
2024/04/05 12:09:43;;;;;;;0.90;0.80;;;;;;;21.22;22.18;100346.78;111814;1249;23010;-46
2024/04/05 12:12:34;;;;;;;1.20;0.60;;;;;;;20.80;22.51;100350.51;112040;1249;22513;-44
2024/04/05 12:15:26;;;;;;;2.50;1.20;;;;;;;20.37;22.56;100350.46;112148;1249;23054;-45
2024/04/05 12:18:01;;;;;;;2.40;0.80;;;;;;;20.12;23.34;100352.66;111154;1249;22968;-44
2024/04/05 12:20:34;;;;;;;0.90;0.70;;;;;;;19.99;22.30;100353.51;111801;1242;22526;-47
2024/04/05 12:25:34;;;;;;;1.10;0.90;;;;;;;19.90;22.68;100344.63;111292;1256;22502;-42
2024/04/05 12:28:16;;;;;;;1.10;0.80;;;;;;;19.82;22.09;100346.16;109604;1256;25252;-46
2024/04/05 12:30:49;;;;;;;0.60;0.50;;;;;;;19.61;22.35;100344.64;109200;1255;22709;-47
2024/04/05 12:33:18;;;;;;;0.60;0.60;;;;;;;19.45;23.35;100339.89;109366;1256;22528;-42
2024/04/05 12:36:00;;;;;;;0.80;0.70;;;;;;;19.50;22.90;100333.89;109215;1256;22524;-47
2024/04/05 12:38:33;;;;;;;1.10;0.60;;;;;;;19.76;23.30;100335.42;108961;1255;24413;-41
2024/04/05 12:41:17;;;;;;;2.30;0.70;;;;;;;19.94;23.20;100331.76;109978;1255;23282;-43
2024/04/05 12:43:52;;;;;;;0.90;0.60;;;;;;;19.92;22.52;100330.92;109137;1256;25429;-46
2024/04/05 12:46:26;;;;;;;1.30;0.50;;;;;;;19.85;22.23;100327.32;110898;1256;22647;-46
2024/04/05 12:49:06;;;;;;;1.10;0.70;;;;;;;19.87;23.49;100326.20;111409;1256;22525;-46
2024/04/05 12:51:42;;;;;;;0.90;0.60;;;;;;;20.11;23.21;100325.61;109312;1244;24265;-43
2024/04/05 12:54:12;;;;;;;0.70;0.50;;;;;;;20.14;21.82;100323.88;109915;1255;23438;-46
2024/04/05 12:56:43;;;;;;;1.60;0.70;;;;;;;20.01;22.06;100321.38;110031;1256;22739;-46
2024/04/05 12:59:22;;;;;;;1.30;0.70;;;;;;;19.96;22.10;100321.07;110302;1255;24274;-44
2024/04/05 13:02:00;;;;;;;1.70;0.80;;;;;;;20.12;22.41;100315.30;109405;1249;22514;-42
2024/04/05 13:04:32;;;;;;;1.10;0.80;;;;;;;20.49;21.20;100310.48;111723;1249;22481;-46
2024/04/05 13:07:06;;;;;;;2.40;0.70;;;;;;;20.80;21.07;100308.67;111585;1249;23162;-43
2024/04/05 13:09:36;;;;;;;3.00;0.70;;;;;;;21.09;21.14;100306.70;110743;1249;23507;-45
2024/04/05 13:12:07;;;;;;;0.70;0.60;;;;;;;21.39;21.06;100304.21;111263;1249;22737;-44
2024/04/05 13:14:41;;;;;;;0.90;0.40;;;;;;;21.48;21.61;100303.63;110658;1249;25385;-46
2024/04/05 13:17:12;;;;;;;5.40;0.80;;;;;;;21.64;21.83;100303.42;109911;1249;23368;-45
2024/04/05 13:19:42;;;;;;;0.70;0.50;;;;;;;22.05;20.97;100304.91;111316;1249;22544;-45
2024/04/05 13:22:20;;;;;;;0.70;0.70;;;;;;;22.54;20.68;100303.63;112097;1249;23186;-42
2024/04/05 13:25:14;;;;;;;2.00;0.60;;;;;;;22.94;19.65;100302.19;111587;1252;23313;-42
2024/04/05 13:27:50;;;;;;;2.20;0.80;;;;;;;23.06;19.75;100303.01;111714;1251;22540;-46
2024/04/05 13:30:22;;;;;;;0.70;0.50;;;;;;;23.29;20.60;100305.88;110432;1251;22516;-42
2024/04/05 13:32:58;;;;;;;0.70;0.70;;;;;;;23.61;20.23;100302.05;110716;1251;23002;-45
2024/04/05 13:35:35;;;;;;;1.90;0.80;;;;;;;24.01;18.64;100302.02;110275;1251;22668;-42
2024/04/05 13:38:05;;;;;;;1.70;0.60;;;;;;;24.19;18.66;100299.43;110998;1242;22510;-45
2024/04/05 13:40:37;;;;;;;1.00;0.50;;;;;;;24.27;18.68;100299.88;109763;1238;22531;-44
2024/04/05 13:43:06;;;;;;;2.50;0.70;;;;;;;24.14;18.44;100300.21;110763;1251;22512;-43
2024/04/05 13:45:49;;;;;;;1.40;0.60;;;;;;;23.95;19.46;100304.35;110303;1251;23865;-46
2024/04/05 13:48:25;;;;;;;6.00;0.70;;;;;;;23.88;19.45;100303.66;109360;1251;22479;-44
2024/04/05 13:50:57;;;;;;;1.80;0.70;;;;;;;23.75;18.88;100307.89;109869;1251;22679;-43
2024/04/05 13:53:37;;;;;;;2.20;0.80;;;;;;;23.88;18.78;100310.40;109506;1251;24210;-46
2024/04/05 13:56:06;;;;;;;3.60;0.50;;;;;;;24.30;19.01;100309.85;109616;1251;23892;-43
2024/04/05 13:58:38;;;;;;;2.60;0.70;;;;;;;24.58;17.82;100307.38;109617;1252;22510;-46
2024/04/05 14:05:35;;;;;;;1.50;0.80;;;;;;;24.01;18.24;100315.58;110137;1251;22506;-46
2024/04/05 14:08:12;;;;;;;1.30;0.80;;;;;;;24.28;18.28;100318.52;109696;1251;22566;-43
2024/04/05 14:10:47;;;;;;;1.90;0.70;;;;;;;24.91;18.38;100315.74;109590;1251;22923;-46
2024/04/05 14:13:23;;;;;;;2.70;0.60;;;;;;;25.76;17.84;100316.14;110339;1251;22546;-43
2024/04/05 14:16:17;;;;;;;2.30;0.70;;;;;;;26.54;17.45;100317.25;110001;1252;24221;-42
2024/04/05 14:18:52;;;;;;;0.70;0.60;;;;;;;26.74;15.60;100320.60;110856;1251;22435;-47
2024/04/05 14:21:24;;;;;;;1.20;0.50;;;;;;;26.63;15.37;100318.50;110509;1252;23202;-42
